This is the latest recevied weather packets stored in our database for station/object W4TTU-1. If no packets are shown the sender has not sent any weather packets the latest 10 day(s).
| Time | Temp. | Humidity | Pressure | Rain* | Wind** | Luminosity | Snow |
|---|---|---|---|---|---|---|---|
| 1777612469 | 7.22° C | 31% | 851.2 hPa | 0 mm | - | - | - |
| 1777611568 | 8.33° C | 31% | 851.2 hPa | 0 mm | - | - | - |
| 1777610672 | 8.89° C | 31% | 851 hPa | 0 mm | - | - | - |
| 1777609767 | 10° C | 31% | 851 hPa | 0 mm | - | - | - |
| 1777608867 | 11.11° C | 31% | 850.9 hPa | 0 mm | - | - | - |
| 1777607966 | 12.22° C | 30% | 850.9 hPa | 0 mm | - | - | - |
| 1777607070 | 13.33° C | 30% | 850.7 hPa | 0 mm | - | - | - |
| 1777606167 | 14.44° C | 29% | 850.7 hPa | 0 mm | - | - | - |
| 1777605264 | 16.11° C | 29% | 850.5 hPa | 0 mm | - | - | - |
| 1777604364 | 17.78° C | 30% | 850.3 hPa | 0 mm | - | - | - |
| 1777602563 | 20.56° C | 29% | 849.9 hPa | 0 mm | - | - | - |
| 1777600762 | 23.33° C | 29% | 849.6 hPa | 0 mm | - | - | - |
| 1777599861 | 24.44° C | 30% | 849.5 hPa | 0 mm | - | - | - |
| 1777598961 | 25.56° C | 30% | 849.5 hPa | 0 mm | - | - | - |
| 1777597160 | 27.78° C | 31% | 849.3 hPa | 0 mm | - | - | - |
| 1777596262 | 28.33° C | 31% | 849.2 hPa | 0 mm | - | - | - |
| 1777591758 | 27.78° C | 32% | 849.3 hPa | 0 mm | - | - | - |
| 1777590858 | 27.22° C | 33% | 849.3 hPa | 0 mm | - | - | - |
| 1777589055 | 25.56° C | 33% | 849.4 hPa | 0 mm | - | - | - |
| 1777587254 | 23.89° C | 34% | 849.5 hPa | 0 mm | - | - | - |
| 1777586360 | 23.89° C | 34% | 849.7 hPa | 0 mm | - | - | - |
| 1777584553 | 23.89° C | 35% | 850 hPa | 0 mm | - | - | - |
| 1777583652 | 22.78° C | 36% | 850 hPa | 0 mm | - | - | - |
| 1777582752 | 22.22° C | 37% | 850.2 hPa | 0 mm | - | - | - |
| 1777581851 | 21.67° C | 37% | 850.3 hPa | 0 mm | - | - | - |
* Rain since midnight (hover to see other rain measurements)
** Current wind speed in m/s (hover to see current wind gust speed)